KADW

Joint Base Andrews Airport

Camp Springs, Maryland, USA
TAF KADW 170900Z 1709/1815 18009KT 9999 SCT200 QNH2993INS BECMG 1720/1721 19012KT 9000 -SHRA OVC045 QNH2990INS TEMPO 1722/1802 22015G25KT 6000 TSRA OVC040CB BECMG 1802/1803 23009KT 9999 NSW BKN050 QNH2988INS TX33/1722Z TN23/1710Z
Issued Valid From Valid To
Aug-17 @ 09:00 UTC
(6 hours ago)
Aug-17 @ 09:00 UTC
(6 hours ago)
Aug-18 @ 15:00 UTC
(in 24 hours)
Aug-17 @ 09:00 to Aug-17 @ 20:00
TAF KADW 170900Z 1709/1815 18009KT 9999 SCT200 QNH2993INS
Wind Visibility Clouds Readings
180° at 9 knots Greater than 6 miles
  • Scattered at 20,000' AGL
Altimeter 29.94" Hg
Pressure 1014 hPa
Becoming Aug-17 @ 20:00 to Aug-18 @ 02:00
BECMG 1720/1721 19012KT 9000 -SHRA OVC045 QNH2990INS
Wind Visibility Clouds Conditions Readings
190° at 12 knots 51/59 miles
  • Overcast at 4,500' AGL
  • Light Rain
Altimeter 29.91" Hg
Pressure 1013 hPa
Temporary Aug-17 @ 22:00 to Aug-18 @ 02:00
TEMPO 1722/1802 22015G25KT 6000 TSRA OVC040CB
Wind Visibility Clouds Conditions
220° at 15 knots
 Gusting to 25 knots
31/73 miles
  • Overcast at 4,000' AGL
  • Thunderstorm
  • Rain
Becoming Aug-18 @ 02:00 to Aug-18 @ 15:00
BECMG 1802/1803 23009KT 9999 NSW BKN050 QNH2988INS TX33/1722Z TN23/1710Z
Wind Visibility Clouds Conditions Readings
230° at 9 knots Greater than 6 miles
  • Broken at 5,000' AGL
Altimeter 29.88" Hg
Pressure 1012 hPa
TAF KADW 170900Z 1709/1815 18009KT 9999 SCT200 QNH2993INS BECMG 1720/1721 19012KT 9000 -SHRA OVC045 QNH2990INS TEMPO 1722/1802 22015G25KT 6000 TSRA OVC040CB BECMG 1802/1803 23009KT 9999 NSW BKN050 QNH2988INS TX33/1722Z TN23/1710Z
Issued Aug-17 @ 09:00 UTC
(6 hours ago)
Valid From Aug-17 @ 09:00 UTC
(6 hours ago)
Valid To Aug-18 @ 15:00 UTC
(in 24 hours)
Aug-17 @ 09:00 - Aug-17 @ 20:00
Wind Visibility
180° at 9 knots Greater than 6 miles
Clouds
  • Scattered at 20,000' AGL
Becoming Aug-17 @ 20:00 - Aug-18 @ 02:00
Wind Visibility
190° at 12 knots 51/59 miles
Clouds
  • Overcast at 4,500' AGL
Conditions
  • Light Rain
Temporary Aug-17 @ 22:00 - Aug-18 @ 02:00
Wind Visibility
220° at 15 knots
 Gusting to 25 knots
31/73 miles
Clouds
  • Overcast at 4,000' AGL
Conditions
  • Thunderstorm
  • Rain
Becoming Aug-18 @ 02:00 - Aug-18 @ 15:00
Wind Visibility
230° at 9 knots Greater than 6 miles
Clouds
  • Broken at 5,000' AGL
Conditions